sensor_id;sensor_type;location;lat;lon;timestamp;P1;durP1;ratioP1;P2;durP2;ratioP2
13973;SDS011;7060;43.770;4.008;2023-07-02T00:00:48;14.53;;;12.07;;
13973;SDS011;7060;43.770;4.008;2023-07-02T00:03:18;14.90;;;12.60;;
13973;SDS011;7060;43.770;4.008;2023-07-02T00:05:49;14.00;;;12.10;;
13973;SDS011;7060;43.770;4.008;2023-07-02T00:08:21;13.97;;;11.93;;
13973;SDS011;7060;43.770;4.008;2023-07-02T00:10:51;15.00;;;12.37;;
13973;SDS011;7060;43.770;4.008;2023-07-02T00:13:20;12.83;;;11.43;;
13973;SDS011;7060;43.770;4.008;2023-07-02T00:15:50;15.73;;;13.37;;
13973;SDS011;7060;43.770;4.008;2023-07-02T00:18:19;14.30;;;12.83;;
13973;SDS011;7060;43.770;4.008;2023-07-02T00:20:48;14.43;;;12.07;;
13973;SDS011;7060;43.770;4.008;2023-07-02T00:23:17;14.77;;;13.00;;
13973;SDS011;7060;43.770;4.008;2023-07-02T00:25:47;17.53;;;14.30;;
13973;SDS011;7060;43.770;4.008;2023-07-02T00:28:17;15.73;;;13.87;;
13973;SDS011;7060;43.770;4.008;2023-07-02T00:30:47;16.37;;;13.90;;
13973;SDS011;7060;43.770;4.008;2023-07-02T00:33:16;16.50;;;14.77;;
13973;SDS011;7060;43.770;4.008;2023-07-02T00:35:45;15.70;;;13.50;;
13973;SDS011;7060;43.770;4.008;2023-07-02T00:38:14;15.73;;;14.13;;
13973;SDS011;7060;43.770;4.008;2023-07-02T00:40:43;16.17;;;14.17;;
13973;SDS011;7060;43.770;4.008;2023-07-02T00:43:12;15.87;;;13.53;;
13973;SDS011;7060;43.770;4.008;2023-07-02T00:45:43;15.60;;;13.33;;
13973;SDS011;7060;43.770;4.008;2023-07-02T00:48:13;14.27;;;12.57;;
13973;SDS011;7060;43.770;4.008;2023-07-02T00:50:42;17.03;;;13.23;;
13973;SDS011;7060;43.770;4.008;2023-07-02T00:53:11;13.83;;;12.03;;
13973;SDS011;7060;43.770;4.008;2023-07-02T00:55:40;15.07;;;13.37;;
13973;SDS011;7060;43.770;4.008;2023-07-02T00:58:09;14.80;;;13.20;;
13973;SDS011;7060;43.770;4.008;2023-07-02T01:00:39;16.10;;;12.27;;
13973;SDS011;7060;43.770;4.008;2023-07-02T01:03:10;14.20;;;12.43;;
13973;SDS011;7060;43.770;4.008;2023-07-02T01:05:40;14.53;;;12.90;;
13973;SDS011;7060;43.770;4.008;2023-07-02T01:08:08;14.13;;;12.57;;
13973;SDS011;7060;43.770;4.008;2023-07-02T01:10:39;15.13;;;12.60;;
13973;SDS011;7060;43.770;4.008;2023-07-02T01:13:10;14.17;;;12.73;;
13973;SDS011;7060;43.770;4.008;2023-07-02T01:15:42;15.17;;;12.43;;
13973;SDS011;7060;43.770;4.008;2023-07-02T01:18:14;14.87;;;12.97;;
13973;SDS011;7060;43.770;4.008;2023-07-02T01:20:45;14.33;;;12.13;;
13973;SDS011;7060;43.770;4.008;2023-07-02T01:23:16;14.13;;;11.53;;
13973;SDS011;7060;43.770;4.008;2023-07-02T01:25:44;14.53;;;12.63;;
13973;SDS011;7060;43.770;4.008;2023-07-02T01:28:15;13.70;;;11.90;;
13973;SDS011;7060;43.770;4.008;2023-07-02T01:30:44;12.57;;;11.13;;
13973;SDS011;7060;43.770;4.008;2023-07-02T01:33:13;12.73;;;11.37;;
13973;SDS011;7060;43.770;4.008;2023-07-02T01:35:44;15.63;;;12.70;;
13973;SDS011;7060;43.770;4.008;2023-07-02T01:38:14;14.60;;;11.90;;
13973;SDS011;7060;43.770;4.008;2023-07-02T01:40:43;13.43;;;12.03;;
13973;SDS011;7060;43.770;4.008;2023-07-02T01:43:12;14.37;;;12.13;;
13973;SDS011;7060;43.770;4.008;2023-07-02T01:45:41;13.13;;;11.53;;
13973;SDS011;7060;43.770;4.008;2023-07-02T01:48:11;13.70;;;12.00;;
13973;SDS011;7060;43.770;4.008;2023-07-02T01:50:41;13.83;;;12.43;;
13973;SDS011;7060;43.770;4.008;2023-07-02T01:53:11;13.87;;;11.67;;
13973;SDS011;7060;43.770;4.008;2023-07-02T01:55:40;13.87;;;11.93;;
13973;SDS011;7060;43.770;4.008;2023-07-02T01:58:09;13.70;;;10.97;;
13973;SDS011;7060;43.770;4.008;2023-07-02T02:00:37;12.90;;;11.57;;
13973;SDS011;7060;43.770;4.008;2023-07-02T02:03:07;13.90;;;11.40;;
13973;SDS011;7060;43.770;4.008;2023-07-02T02:05:36;13.60;;;12.07;;
13973;SDS011;7060;43.770;4.008;2023-07-02T02:08:05;13.80;;;11.93;;
13973;SDS011;7060;43.770;4.008;2023-07-02T02:10:35;12.77;;;11.47;;
13973;SDS011;7060;43.770;4.008;2023-07-02T02:13:05;14.87;;;12.60;;
13973;SDS011;7060;43.770;4.008;2023-07-02T02:15:33;13.90;;;12.30;;
13973;SDS011;7060;43.770;4.008;2023-07-02T02:18:05;16.03;;;12.00;;
13973;SDS011;7060;43.770;4.008;2023-07-02T02:20:34;14.10;;;11.93;;
13973;SDS011;7060;43.770;4.008;2023-07-02T02:23:03;15.10;;;12.37;;
13973;SDS011;7060;43.770;4.008;2023-07-02T02:25:31;13.23;;;11.60;;
13973;SDS011;7060;43.770;4.008;2023-07-02T02:28:03;13.17;;;11.53;;
13973;SDS011;7060;43.770;4.008;2023-07-02T02:30:32;13.10;;;11.77;;
13973;SDS011;7060;43.770;4.008;2023-07-02T02:33:01;15.10;;;12.70;;
13973;SDS011;7060;43.770;4.008;2023-07-02T02:35:31;12.50;;;11.20;;
13973;SDS011;7060;43.770;4.008;2023-07-02T02:38:01;14.47;;;12.43;;
13973;SDS011;7060;43.770;4.008;2023-07-02T02:40:31;14.30;;;11.93;;
13973;SDS011;7060;43.770;4.008;2023-07-02T02:43:02;13.73;;;12.33;;
13973;SDS011;7060;43.770;4.008;2023-07-02T02:45:31;13.20;;;11.67;;
13973;SDS011;7060;43.770;4.008;2023-07-02T02:48:00;13.43;;;10.97;;
13973;SDS011;7060;43.770;4.008;2023-07-02T02:50:29;12.23;;;10.93;;
13973;SDS011;7060;43.770;4.008;2023-07-02T02:52:58;14.40;;;11.40;;
13973;SDS011;7060;43.770;4.008;2023-07-02T02:55:27;15.47;;;12.57;;
13973;SDS011;7060;43.770;4.008;2023-07-02T02:57:56;13.13;;;11.17;;
13973;SDS011;7060;43.770;4.008;2023-07-02T03:00:26;11.63;;;10.33;;
13973;SDS011;7060;43.770;4.008;2023-07-02T03:02:55;14.93;;;10.67;;
13973;SDS011;7060;43.770;4.008;2023-07-02T03:05:24;12.40;;;10.90;;
13973;SDS011;7060;43.770;4.008;2023-07-02T03:07:53;12.00;;;10.70;;
13973;SDS011;7060;43.770;4.008;2023-07-02T03:10:22;11.83;;;10.57;;
13973;SDS011;7060;43.770;4.008;2023-07-02T03:12:51;12.30;;;10.43;;
13973;SDS011;7060;43.770;4.008;2023-07-02T03:15:20;12.77;;;10.77;;
13973;SDS011;7060;43.770;4.008;2023-07-02T03:17:50;13.00;;;10.20;;
13973;SDS011;7060;43.770;4.008;2023-07-02T03:20:19;10.73;;;9.10;;
13973;SDS011;7060;43.770;4.008;2023-07-02T03:22:48;12.37;;;9.40;;
13973;SDS011;7060;43.770;4.008;2023-07-02T03:25:17;11.33;;;9.53;;
13973;SDS011;7060;43.770;4.008;2023-07-02T03:27:47;14.10;;;9.77;;
13973;SDS011;7060;43.770;4.008;2023-07-02T03:30:16;10.80;;;9.50;;
13973;SDS011;7060;43.770;4.008;2023-07-02T03:32:45;11.03;;;8.77;;
13973;SDS011;7060;43.770;4.008;2023-07-02T03:35:15;10.77;;;9.00;;
13973;SDS011;7060;43.770;4.008;2023-07-02T03:37:44;10.53;;;8.83;;
13973;SDS011;7060;43.770;4.008;2023-07-02T03:40:13;10.77;;;9.60;;
13973;SDS011;7060;43.770;4.008;2023-07-02T03:42:43;10.07;;;9.00;;
13973;SDS011;7060;43.770;4.008;2023-07-02T03:45:12;10.70;;;8.87;;
13973;SDS011;7060;43.770;4.008;2023-07-02T03:47:41;9.97;;;8.80;;
13973;SDS011;7060;43.770;4.008;2023-07-02T03:50:09;9.47;;;8.47;;
13973;SDS011;7060;43.770;4.008;2023-07-02T03:52:40;10.73;;;9.00;;
13973;SDS011;7060;43.770;4.008;2023-07-02T03:55:09;11.97;;;8.90;;
13973;SDS011;7060;43.770;4.008;2023-07-02T03:57:38;9.93;;;8.87;;
13973;SDS011;7060;43.770;4.008;2023-07-02T04:00:07;9.30;;;8.33;;
13973;SDS011;7060;43.770;4.008;2023-07-02T04:02:41;10.03;;;8.57;;
13973;SDS011;7060;43.770;4.008;2023-07-02T04:05:10;11.17;;;8.53;;
13973;SDS011;7060;43.770;4.008;2023-07-02T04:07:41;10.53;;;8.50;;
13973;SDS011;7060;43.770;4.008;2023-07-02T04:10:10;11.17;;;8.20;;
13973;SDS011;7060;43.770;4.008;2023-07-02T04:12:38;10.93;;;9.13;;
13973;SDS011;7060;43.770;4.008;2023-07-02T04:15:08;10.43;;;9.33;;
13973;SDS011;7060;43.770;4.008;2023-07-02T04:17:37;10.57;;;8.70;;
13973;SDS011;7060;43.770;4.008;2023-07-02T04:20:07;9.93;;;8.13;;
13973;SDS011;7060;43.770;4.008;2023-07-02T04:22:38;10.53;;;8.20;;
13973;SDS011;7060;43.770;4.008;2023-07-02T04:25:08;11.53;;;8.63;;
13973;SDS011;7060;43.770;4.008;2023-07-02T04:27:57;11.50;;;9.40;;
13973;SDS011;7060;43.770;4.008;2023-07-02T04:30:26;9.93;;;8.57;;
13973;SDS011;7060;43.770;4.008;2023-07-02T04:32:55;9.00;;;7.87;;
13973;SDS011;7060;43.770;4.008;2023-07-02T04:35:24;10.50;;;8.30;;
13973;SDS011;7060;43.770;4.008;2023-07-02T04:37:53;9.93;;;8.43;;
13973;SDS011;7060;43.770;4.008;2023-07-02T04:40:23;10.50;;;8.83;;
13973;SDS011;7060;43.770;4.008;2023-07-02T04:42:52;9.37;;;7.87;;
13973;SDS011;7060;43.770;4.008;2023-07-02T04:45:25;9.33;;;8.23;;
13973;SDS011;7060;43.770;4.008;2023-07-02T04:47:59;11.13;;;7.70;;
13973;SDS011;7060;43.770;4.008;2023-07-02T04:50:28;9.23;;;7.47;;
13973;SDS011;7060;43.770;4.008;2023-07-02T04:52:56;10.07;;;7.53;;
13973;SDS011;7060;43.770;4.008;2023-07-02T04:55:27;9.43;;;7.30;;
13973;SDS011;7060;43.770;4.008;2023-07-02T04:57:56;10.67;;;7.73;;
13973;SDS011;7060;43.770;4.008;2023-07-02T05:00:25;8.40;;;7.50;;
13973;SDS011;7060;43.770;4.008;2023-07-02T05:02:53;8.47;;;7.17;;
13973;SDS011;7060;43.770;4.008;2023-07-02T05:05:22;9.07;;;7.53;;
13973;SDS011;7060;43.770;4.008;2023-07-02T05:07:53;7.70;;;6.67;;
13973;SDS011;7060;43.770;4.008;2023-07-02T05:10:22;7.87;;;6.73;;
13973;SDS011;7060;43.770;4.008;2023-07-02T05:12:53;9.00;;;6.50;;
13973;SDS011;7060;43.770;4.008;2023-07-02T05:15:23;7.80;;;5.87;;
13973;SDS011;7060;43.770;4.008;2023-07-02T05:17:53;9.10;;;6.80;;
13973;SDS011;7060;43.770;4.008;2023-07-02T05:20:21;8.13;;;5.83;;
13973;SDS011;7060;43.770;4.008;2023-07-02T05:22:50;6.97;;;5.70;;
13973;SDS011;7060;43.770;4.008;2023-07-02T05:25:19;5.87;;;5.20;;
13973;SDS011;7060;43.770;4.008;2023-07-02T05:27:48;8.37;;;5.37;;
13973;SDS011;7060;43.770;4.008;2023-07-02T05:30:19;6.40;;;5.80;;
13973;SDS011;7060;43.770;4.008;2023-07-02T05:32:48;6.80;;;5.87;;
13973;SDS011;7060;43.770;4.008;2023-07-02T05:35:16;6.50;;;5.40;;
13973;SDS011;7060;43.770;4.008;2023-07-02T05:37:45;5.20;;;4.70;;
13973;SDS011;7060;43.770;4.008;2023-07-02T05:40:14;5.20;;;4.70;;
13973;SDS011;7060;43.770;4.008;2023-07-02T05:42:43;4.97;;;4.20;;
13973;SDS011;7060;43.770;4.008;2023-07-02T05:45:12;4.93;;;4.43;;
13973;SDS011;7060;43.770;4.008;2023-07-02T05:47:43;5.37;;;4.57;;
13973;SDS011;7060;43.770;4.008;2023-07-02T05:50:12;4.90;;;4.00;;
13973;SDS011;7060;43.770;4.008;2023-07-02T05:52:41;4.30;;;3.80;;
13973;SDS011;7060;43.770;4.008;2023-07-02T05:55:11;4.57;;;3.90;;
13973;SDS011;7060;43.770;4.008;2023-07-02T05:57:40;3.63;;;3.28;;
13973;SDS011;7060;43.770;4.008;2023-07-02T06:00:09;4.05;;;3.65;;
13973;SDS011;7060;43.770;4.008;2023-07-02T06:02:39;3.50;;;3.20;;
13973;SDS011;7060;43.770;4.008;2023-07-02T06:05:09;3.90;;;3.50;;
13973;SDS011;7060;43.770;4.008;2023-07-02T06:07:38;3.28;;;2.92;;
13973;SDS011;7060;43.770;4.008;2023-07-02T06:10:07;3.33;;;3.03;;
13973;SDS011;7060;43.770;4.008;2023-07-02T06:12:37;3.00;;;2.80;;
13973;SDS011;7060;43.770;4.008;2023-07-02T06:15:07;3.25;;;2.95;;
13973;SDS011;7060;43.770;4.008;2023-07-02T06:17:37;3.85;;;3.33;;
13973;SDS011;7060;43.770;4.008;2023-07-02T06:20:06;4.47;;;2.92;;
13973;SDS011;7060;43.770;4.008;2023-07-02T06:22:37;2.83;;;2.63;;
13973;SDS011;7060;43.770;4.008;2023-07-02T06:25:08;2.72;;;2.53;;
13973;SDS011;7060;43.770;4.008;2023-07-02T06:27:37;2.95;;;2.65;;
13973;SDS011;7060;43.770;4.008;2023-07-02T06:30:06;3.40;;;3.10;;
13973;SDS011;7060;43.770;4.008;2023-07-02T06:32:36;3.15;;;2.85;;
13973;SDS011;7060;43.770;4.008;2023-07-02T06:35:06;2.90;;;2.60;;
13973;SDS011;7060;43.770;4.008;2023-07-02T06:37:37;3.42;;;3.13;;
13973;SDS011;7060;43.770;4.008;2023-07-02T06:40:06;2.65;;;2.45;;
13973;SDS011;7060;43.770;4.008;2023-07-02T06:42:35;3.10;;;2.60;;
13973;SDS011;7060;43.770;4.008;2023-07-02T06:45:05;2.95;;;2.75;;
13973;SDS011;7060;43.770;4.008;2023-07-02T06:47:36;3.22;;;2.92;;
13973;SDS011;7060;43.770;4.008;2023-07-02T06:50:05;3.35;;;3.05;;
13973;SDS011;7060;43.770;4.008;2023-07-02T06:52:37;3.22;;;3.03;;
13973;SDS011;7060;43.770;4.008;2023-07-02T06:55:06;3.38;;;3.08;;
13973;SDS011;7060;43.770;4.008;2023-07-02T06:57:35;2.88;;;2.67;;
13973;SDS011;7060;43.770;4.008;2023-07-02T07:00:10;2.70;;;2.50;;
13973;SDS011;7060;43.770;4.008;2023-07-02T07:02:39;2.80;;;2.60;;
13973;SDS011;7060;43.770;4.008;2023-07-02T07:05:08;2.15;;;2.05;;
13973;SDS011;7060;43.770;4.008;2023-07-02T07:07:39;2.60;;;2.40;;
13973;SDS011;7060;43.770;4.008;2023-07-02T07:10:08;2.58;;;2.38;;
13973;SDS011;7060;43.770;4.008;2023-07-02T07:12:37;2.58;;;2.38;;
13973;SDS011;7060;43.770;4.008;2023-07-02T07:15:07;2.63;;;2.42;;
13973;SDS011;7060;43.770;4.008;2023-07-02T07:17:37;2.03;;;1.92;;
13973;SDS011;7060;43.770;4.008;2023-07-02T07:20:06;2.30;;;2.10;;
13973;SDS011;7060;43.770;4.008;2023-07-02T07:22:36;2.22;;;2.10;;
13973;SDS011;7060;43.770;4.008;2023-07-02T07:25:07;1.88;;;1.77;;
13973;SDS011;7060;43.770;4.008;2023-07-02T07:27:37;2.28;;;2.15;;
13973;SDS011;7060;43.770;4.008;2023-07-02T07:30:06;2.08;;;1.92;;
13973;SDS011;7060;43.770;4.008;2023-07-02T07:32:35;2.25;;;2.15;;
13973;SDS011;7060;43.770;4.008;2023-07-02T07:35:04;2.30;;;2.10;;
13973;SDS011;7060;43.770;4.008;2023-07-02T07:37:34;2.25;;;1.90;;
13973;SDS011;7060;43.770;4.008;2023-07-02T07:40:03;1.45;;;1.35;;
13973;SDS011;7060;43.770;4.008;2023-07-02T07:42:34;1.17;;;1.08;;
13973;SDS011;7060;43.770;4.008;2023-07-02T07:45:03;1.35;;;1.25;;
13973;SDS011;7060;43.770;4.008;2023-07-02T07:47:33;1.30;;;1.20;;
13973;SDS011;7060;43.770;4.008;2023-07-02T07:50:03;1.20;;;1.10;;
13973;SDS011;7060;43.770;4.008;2023-07-02T07:52:37;1.15;;;1.00;;
13973;SDS011;7060;43.770;4.008;2023-07-02T07:55:06;1.10;;;0.93;;
13973;SDS011;7060;43.770;4.008;2023-07-02T07:57:38;1.02;;;0.90;;
13973;SDS011;7060;43.770;4.008;2023-07-02T08:00:07;1.00;;;0.90;;
13973;SDS011;7060;43.770;4.008;2023-07-02T08:02:45;1.08;;;0.98;;
13973;SDS011;7060;43.770;4.008;2023-07-02T08:05:14;0.80;;;0.80;;
13973;SDS011;7060;43.770;4.008;2023-07-02T08:07:43;0.60;;;0.60;;
13973;SDS011;7060;43.770;4.008;2023-07-02T08:10:12;0.68;;;0.65;;
13973;SDS011;7060;43.770;4.008;2023-07-02T08:12:42;0.60;;;0.60;;
13973;SDS011;7060;43.770;4.008;2023-07-02T08:15:12;0.50;;;0.50;;
13973;SDS011;7060;43.770;4.008;2023-07-02T08:17:41;0.60;;;0.60;;
13973;SDS011;7060;43.770;4.008;2023-07-02T08:20:10;0.55;;;0.50;;
13973;SDS011;7060;43.770;4.008;2023-07-02T08:22:40;0.80;;;0.60;;
13973;SDS011;7060;43.770;4.008;2023-07-02T08:25:09;0.75;;;0.70;;
13973;SDS011;7060;43.770;4.008;2023-07-02T08:27:38;0.45;;;0.45;;
13973;SDS011;7060;43.770;4.008;2023-07-02T08:30:08;0.40;;;0.40;;
13973;SDS011;7060;43.770;4.008;2023-07-02T08:32:39;0.43;;;0.43;;
13973;SDS011;7060;43.770;4.008;2023-07-02T08:35:08;0.65;;;0.40;;
13973;SDS011;7060;43.770;4.008;2023-07-02T08:37:37;0.30;;;0.30;;
13973;SDS011;7060;43.770;4.008;2023-07-02T08:40:15;0.30;;;0.30;;
13973;SDS011;7060;43.770;4.008;2023-07-02T08:42:45;0.25;;;0.25;;
13973;SDS011;7060;43.770;4.008;2023-07-02T08:45:17;1.50;;;0.30;;
13973;SDS011;7060;43.770;4.008;2023-07-02T08:47:46;0.30;;;0.28;;
13973;SDS011;7060;43.770;4.008;2023-07-02T08:50:15;0.25;;;0.25;;
13973;SDS011;7060;43.770;4.008;2023-07-02T08:52:43;0.98;;;0.30;;
13973;SDS011;7060;43.770;4.008;2023-07-02T08:55:13;0.25;;;0.25;;
13973;SDS011;7060;43.770;4.008;2023-07-02T09:00:18;0.20;;;0.15;;
13973;SDS011;7060;43.770;4.008;2023-07-02T09:02:48;0.63;;;0.22;;
13973;SDS011;7060;43.770;4.008;2023-07-02T09:05:17;0.20;;;0.20;;
13973;SDS011;7060;43.770;4.008;2023-07-02T09:07:46;0.95;;;0.20;;
13973;SDS011;7060;43.770;4.008;2023-07-02T09:10:29;0.10;;;0.10;;
13973;SDS011;7060;43.770;4.008;2023-07-02T09:13:04;0.15;;;0.15;;
13973;SDS011;7060;43.770;4.008;2023-07-02T09:15:40;0.20;;;0.20;;
13973;SDS011;7060;43.770;4.008;2023-07-02T09:18:15;0.55;;;0.20;;
13973;SDS011;7060;43.770;4.008;2023-07-02T09:20:46;0.28;;;0.20;;
13973;SDS011;7060;43.770;4.008;2023-07-02T09:23:15;0.20;;;0.20;;
13973;SDS011;7060;43.770;4.008;2023-07-02T09:25:44;0.30;;;0.20;;
13973;SDS011;7060;43.770;4.008;2023-07-02T09:28:20;0.20;;;0.20;;
13973;SDS011;7060;43.770;4.008;2023-07-02T09:30:53;0.20;;;0.20;;
13973;SDS011;7060;43.770;4.008;2023-07-02T09:33:24;0.25;;;0.20;;
13973;SDS011;7060;43.770;4.008;2023-07-02T09:35:54;0.20;;;0.20;;
13973;SDS011;7060;43.770;4.008;2023-07-02T09:38:23;1.17;;;0.30;;
13973;SDS011;7060;43.770;4.008;2023-07-02T09:40:52;0.90;;;0.20;;
13973;SDS011;7060;43.770;4.008;2023-07-02T09:43:22;0.20;;;0.20;;
13973;SDS011;7060;43.770;4.008;2023-07-02T09:45:54;2.10;;;0.40;;
13973;SDS011;7060;43.770;4.008;2023-07-02T09:48:24;1.30;;;0.20;;
13973;SDS011;7060;43.770;4.008;2023-07-02T09:50:55;0.30;;;0.30;;
13973;SDS011;7060;43.770;4.008;2023-07-02T09:53:28;0.40;;;0.20;;
13973;SDS011;7060;43.770;4.008;2023-07-02T09:55:56;0.20;;;0.20;;
13973;SDS011;7060;43.770;4.008;2023-07-02T09:58:25;0.20;;;0.20;;
13973;SDS011;7060;43.770;4.008;2023-07-02T10:00:56;0.30;;;0.30;;
13973;SDS011;7060;43.770;4.008;2023-07-02T10:03:28;0.40;;;0.30;;
13973;SDS011;7060;43.770;4.008;2023-07-02T10:06:04;0.30;;;0.30;;
13973;SDS011;7060;43.770;4.008;2023-07-02T10:08:34;3.47;;;0.32;;
13973;SDS011;7060;43.770;4.008;2023-07-02T10:11:06;0.20;;;0.20;;
13973;SDS011;7060;43.770;4.008;2023-07-02T10:13:40;0.40;;;0.40;;
13973;SDS011;7060;43.770;4.008;2023-07-02T10:16:11;0.52;;;0.40;;
13973;SDS011;7060;43.770;4.008;2023-07-02T10:18:40;0.65;;;0.40;;
13973;SDS011;7060;43.770;4.008;2023-07-02T10:21:15;1.05;;;0.50;;
13973;SDS011;7060;43.770;4.008;2023-07-02T10:23:45;1.67;;;0.50;;
13973;SDS011;7060;43.770;4.008;2023-07-02T10:26:14;0.95;;;0.50;;
13973;SDS011;7060;43.770;4.008;2023-07-02T10:28:55;0.32;;;0.32;;
13973;SDS011;7060;43.770;4.008;2023-07-02T10:31:26;0.98;;;0.47;;
13973;SDS011;7060;43.770;4.008;2023-07-02T10:33:56;0.40;;;0.40;;
13973;SDS011;7060;43.770;4.008;2023-07-02T10:36:24;0.40;;;0.40;;
13973;SDS011;7060;43.770;4.008;2023-07-02T10:38:54;0.50;;;0.40;;
13973;SDS011;7060;43.770;4.008;2023-07-02T10:41:31;0.57;;;0.45;;
13973;SDS011;7060;43.770;4.008;2023-07-02T10:44:07;0.90;;;0.60;;
13973;SDS011;7060;43.770;4.008;2023-07-02T10:46:45;0.60;;;0.60;;
13973;SDS011;7060;43.770;4.008;2023-07-02T10:49:14;0.63;;;0.50;;
13973;SDS011;7060;43.770;4.008;2023-07-02T10:51:45;1.70;;;0.50;;
13973;SDS011;7060;43.770;4.008;2023-07-02T10:54:24;0.50;;;0.50;;
13973;SDS011;7060;43.770;4.008;2023-07-02T10:56:56;0.60;;;0.50;;
13973;SDS011;7060;43.770;4.008;2023-07-02T10:59:25;0.73;;;0.50;;
13973;SDS011;7060;43.770;4.008;2023-07-02T11:01:56;0.85;;;0.60;;
13973;SDS011;7060;43.770;4.008;2023-07-02T11:04:29;0.50;;;0.50;;
13973;SDS011;7060;43.770;4.008;2023-07-02T11:06:59;0.68;;;0.50;;
13973;SDS011;7060;43.770;4.008;2023-07-02T11:09:27;0.75;;;0.50;;
13973;SDS011;7060;43.770;4.008;2023-07-02T11:11:58;0.60;;;0.60;;
13973;SDS011;7060;43.770;4.008;2023-07-02T11:14:29;0.70;;;0.57;;
13973;SDS011;7060;43.770;4.008;2023-07-02T11:17:01;0.50;;;0.50;;
13973;SDS011;7060;43.770;4.008;2023-07-02T11:19:32;0.65;;;0.60;;
13973;SDS011;7060;43.770;4.008;2023-07-02T11:22:01;0.93;;;0.60;;
13973;SDS011;7060;43.770;4.008;2023-07-02T11:24:31;1.23;;;0.55;;
13973;SDS011;7060;43.770;4.008;2023-07-02T11:27:02;0.40;;;0.40;;
13973;SDS011;7060;43.770;4.008;2023-07-02T11:29:33;0.55;;;0.47;;
13973;SDS011;7060;43.770;4.008;2023-07-02T11:32:08;0.60;;;0.55;;
13973;SDS011;7060;43.770;4.008;2023-07-02T11:34:38;0.60;;;0.60;;
13973;SDS011;7060;43.770;4.008;2023-07-02T11:37:07;0.68;;;0.50;;
13973;SDS011;7060;43.770;4.008;2023-07-02T11:39:36;0.50;;;0.50;;
13973;SDS011;7060;43.770;4.008;2023-07-02T11:42:05;0.60;;;0.60;;
13973;SDS011;7060;43.770;4.008;2023-07-02T11:44:34;0.75;;;0.50;;
13973;SDS011;7060;43.770;4.008;2023-07-02T11:47:03;0.63;;;0.63;;
13973;SDS011;7060;43.770;4.008;2023-07-02T11:49:35;1.73;;;0.70;;
13973;SDS011;7060;43.770;4.008;2023-07-02T11:52:04;0.70;;;0.70;;
13973;SDS011;7060;43.770;4.008;2023-07-02T11:54:32;1.35;;;0.90;;
13973;SDS011;7060;43.770;4.008;2023-07-02T11:57:02;0.70;;;0.70;;
13973;SDS011;7060;43.770;4.008;2023-07-02T11:59:31;0.73;;;0.70;;
13973;SDS011;7060;43.770;4.008;2023-07-02T12:02:00;1.77;;;0.80;;
13973;SDS011;7060;43.770;4.008;2023-07-02T12:04:29;1.15;;;0.60;;
13973;SDS011;7060;43.770;4.008;2023-07-02T12:07:00;1.20;;;0.70;;
13973;SDS011;7060;43.770;4.008;2023-07-02T12:09:31;0.60;;;0.60;;
13973;SDS011;7060;43.770;4.008;2023-07-02T12:12:00;0.60;;;0.60;;
13973;SDS011;7060;43.770;4.008;2023-07-02T12:14:29;0.60;;;0.60;;
13973;SDS011;7060;43.770;4.008;2023-07-02T12:16:58;1.23;;;0.70;;
13973;SDS011;7060;43.770;4.008;2023-07-02T12:19:30;1.00;;;0.73;;
13973;SDS011;7060;43.770;4.008;2023-07-02T12:22:01;0.57;;;0.57;;
13973;SDS011;7060;43.770;4.008;2023-07-02T12:24:30;0.60;;;0.60;;
13973;SDS011;7060;43.770;4.008;2023-07-02T12:26:59;0.70;;;0.70;;
13973;SDS011;7060;43.770;4.008;2023-07-02T12:29:27;0.80;;;0.80;;
13973;SDS011;7060;43.770;4.008;2023-07-02T12:31:57;0.82;;;0.70;;
13973;SDS011;7060;43.770;4.008;2023-07-02T12:34:27;1.00;;;0.80;;
13973;SDS011;7060;43.770;4.008;2023-07-02T12:36:56;1.20;;;0.65;;
13973;SDS011;7060;43.770;4.008;2023-07-02T12:39:27;1.10;;;0.80;;
13973;SDS011;7060;43.770;4.008;2023-07-02T12:41:55;1.48;;;0.75;;
13973;SDS011;7060;43.770;4.008;2023-07-02T12:44:25;0.80;;;0.70;;
13973;SDS011;7060;43.770;4.008;2023-07-02T12:46:53;0.80;;;0.80;;
13973;SDS011;7060;43.770;4.008;2023-07-02T12:49:22;0.70;;;0.70;;
13973;SDS011;7060;43.770;4.008;2023-07-02T12:51:51;1.00;;;0.80;;
13973;SDS011;7060;43.770;4.008;2023-07-02T12:54:20;1.13;;;0.82;;
13973;SDS011;7060;43.770;4.008;2023-07-02T12:56:50;0.90;;;0.80;;
13973;SDS011;7060;43.770;4.008;2023-07-02T12:59:19;0.80;;;0.80;;
13973;SDS011;7060;43.770;4.008;2023-07-02T13:01:49;0.70;;;0.60;;
13973;SDS011;7060;43.770;4.008;2023-07-02T13:04:18;0.85;;;0.68;;
13973;SDS011;7060;43.770;4.008;2023-07-02T13:06:48;2.03;;;0.80;;
13973;SDS011;7060;43.770;4.008;2023-07-02T13:09:16;0.70;;;0.70;;
13973;SDS011;7060;43.770;4.008;2023-07-02T13:11:45;0.80;;;0.70;;
13973;SDS011;7060;43.770;4.008;2023-07-02T13:14:16;1.13;;;0.80;;
13973;SDS011;7060;43.770;4.008;2023-07-02T13:16:45;0.68;;;0.60;;
13973;SDS011;7060;43.770;4.008;2023-07-02T13:19:14;0.90;;;0.63;;
13973;SDS011;7060;43.770;4.008;2023-07-02T13:21:43;0.88;;;0.73;;
13973;SDS011;7060;43.770;4.008;2023-07-02T13:24:12;0.88;;;0.75;;
13973;SDS011;7060;43.770;4.008;2023-07-02T13:26:40;0.70;;;0.70;;
13973;SDS011;7060;43.770;4.008;2023-07-02T13:29:11;1.40;;;0.60;;
13973;SDS011;7060;43.770;4.008;2023-07-02T13:31:42;0.90;;;0.80;;
13973;SDS011;7060;43.770;4.008;2023-07-02T13:34:11;0.85;;;0.60;;
13973;SDS011;7060;43.770;4.008;2023-07-02T13:36:40;0.70;;;0.70;;
13973;SDS011;7060;43.770;4.008;2023-07-02T13:39:10;0.70;;;0.60;;
13973;SDS011;7060;43.770;4.008;2023-07-02T13:41:39;0.93;;;0.77;;
13973;SDS011;7060;43.770;4.008;2023-07-02T13:44:07;0.77;;;0.73;;
13973;SDS011;7060;43.770;4.008;2023-07-02T13:46:36;1.55;;;0.75;;
13973;SDS011;7060;43.770;4.008;2023-07-02T13:49:07;0.60;;;0.60;;
13973;SDS011;7060;43.770;4.008;2023-07-02T13:51:36;0.60;;;0.52;;
13973;SDS011;7060;43.770;4.008;2023-07-02T13:54:05;0.70;;;0.60;;
13973;SDS011;7060;43.770;4.008;2023-07-02T13:56:34;0.50;;;0.50;;
13973;SDS011;7060;43.770;4.008;2023-07-02T13:59:04;0.65;;;0.60;;
13973;SDS011;7060;43.770;4.008;2023-07-02T14:01:33;0.73;;;0.55;;
13973;SDS011;7060;43.770;4.008;2023-07-02T14:04:02;0.90;;;0.80;;
13973;SDS011;7060;43.770;4.008;2023-07-02T14:06:32;0.80;;;0.55;;
13973;SDS011;7060;43.770;4.008;2023-07-02T14:09:01;1.25;;;0.70;;
13973;SDS011;7060;43.770;4.008;2023-07-02T14:11:30;1.10;;;0.70;;
13973;SDS011;7060;43.770;4.008;2023-07-02T14:13:59;0.90;;;0.70;;
13973;SDS011;7060;43.770;4.008;2023-07-02T14:16:30;0.77;;;0.70;;
13973;SDS011;7060;43.770;4.008;2023-07-02T14:18:59;1.20;;;1.00;;
13973;SDS011;7060;43.770;4.008;2023-07-02T14:21:27;1.30;;;1.20;;
13973;SDS011;7060;43.770;4.008;2023-07-02T14:23:57;2.20;;;1.58;;
13973;SDS011;7060;43.770;4.008;2023-07-02T14:26:26;2.00;;;1.13;;
13973;SDS011;7060;43.770;4.008;2023-07-02T14:28:55;1.85;;;1.45;;
13973;SDS011;7060;43.770;4.008;2023-07-02T14:31:24;1.95;;;1.38;;
13973;SDS011;7060;43.770;4.008;2023-07-02T14:33:55;1.77;;;1.42;;
13973;SDS011;7060;43.770;4.008;2023-07-02T14:36:24;1.30;;;1.20;;
13973;SDS011;7060;43.770;4.008;2023-07-02T14:38:53;1.75;;;1.52;;
13973;SDS011;7060;43.770;4.008;2023-07-02T14:41:22;3.72;;;2.22;;
13973;SDS011;7060;43.770;4.008;2023-07-02T14:43:51;2.25;;;2.03;;
13973;SDS011;7060;43.770;4.008;2023-07-02T14:46:19;2.33;;;2.13;;
13973;SDS011;7060;43.770;4.008;2023-07-02T14:48:49;2.67;;;2.28;;
13973;SDS011;7060;43.770;4.008;2023-07-02T14:51:20;2.70;;;2.50;;
13973;SDS011;7060;43.770;4.008;2023-07-02T14:53:49;2.97;;;2.72;;
13973;SDS011;7060;43.770;4.008;2023-07-02T14:56:18;2.83;;;2.63;;
13973;SDS011;7060;43.770;4.008;2023-07-02T14:58:47;2.85;;;2.53;;
13973;SDS011;7060;43.770;4.008;2023-07-02T15:01:18;2.90;;;2.60;;
13973;SDS011;7060;43.770;4.008;2023-07-02T15:03:47;2.45;;;2.25;;
13973;SDS011;7060;43.770;4.008;2023-07-02T15:06:17;3.35;;;3.00;;
13973;SDS011;7060;43.770;4.008;2023-07-02T15:08:48;2.53;;;2.30;;
13973;SDS011;7060;43.770;4.008;2023-07-02T15:11:17;3.30;;;3.00;;
13973;SDS011;7060;43.770;4.008;2023-07-02T15:13:46;3.85;;;2.85;;